Time;durP1;ratioP1;P1;durP2;ratioP2;P2;SDS_P1;SDS_P2;PMS_P1;PMS_P2;Temp;Humidity;BMP_temperature;BMP_pressure;BME280_temperature;BME280_humidity;BME280_pressure;Samples;Min_cycle;Max_cycle;Signal;HPM_P1;HPM_P2
2021/06/18 00:02:09;;;;;;;1.23;1.10;;;23.10;63.90;;;;;;4924369;28;20054;-78
2021/06/18 00:08:12;;;;;;;0.93;0.90;;;23.00;64.20;;;;;;4930105;29;20091;-77
2021/06/18 00:18:14;;;;;;;1.65;1.40;;;22.80;64.50;;;;;;4874695;29;20064;-78
2021/06/18 00:25:27;;;;;;;2.10;1.48;;;22.70;64.70;;;;;;4818158;29;20222;-78
2021/06/18 00:27:56;;;;;;;1.42;1.30;;;22.70;64.90;;;;;;4808000;29;20050;-78
2021/06/18 00:30:27;;;;;;;1.90;1.42;;;22.70;64.90;;;;;;4837299;29;20394;-77
2021/06/18 00:47:36;;;;;;;1.10;1.00;;;22.50;65.30;;;;;;4693833;30;20926;-78
2021/06/18 00:50:49;;;;;;;1.55;1.45;;;22.40;65.30;;;;;;4696184;30;20045;-79
2021/06/18 01:01:14;;;;;;;1.15;1.05;;;22.40;65.60;;;;;;4645469;30;20102;-79
2021/06/18 01:08:17;;;;;;;2.47;1.40;;;22.30;65.70;;;;;;4720454;30;20045;-78
2021/06/18 01:14:41;;;;;;;1.67;1.30;;;22.20;65.80;;;;;;4747145;30;20128;-78
2021/06/18 01:26:10;;;;;;;1.50;1.23;;;22.20;66.00;;;;;;4760364;30;20081;-78
2021/06/18 01:39:24;;;;;;;2.22;1.20;;;22.00;66.30;;;;;;4693119;30;20124;-79
2021/06/18 01:46:17;;;;;;;1.67;1.27;;;21.90;66.40;;;;;;4710606;30;20084;-79
2021/06/18 02:01:10;;;;;;;1.45;1.05;;;22.00;66.60;;;;;;4659523;30;20434;-79
2021/06/18 02:11:36;;;;;;;1.10;0.90;;;21.70;66.80;;;;;;4630152;31;20058;-79
2021/06/18 02:14:27;;;;;;;1.10;1.10;;;21.80;66.90;;;;;;4684870;30;20050;-79
2021/06/18 02:32:22;;;;;;;0.80;0.80;;;21.80;66.80;;;;;;4707981;30;20583;-79
2021/06/18 02:35:32;;;;;;;2.10;1.70;;;21.80;66.80;;;;;;4697306;30;20057;-79
2021/06/18 03:01:23;;;;;;;1.10;1.00;;;21.70;67.40;;;;;;4596259;31;20056;-78
2021/06/18 03:24:31;;;;;;;1.10;1.00;;;21.40;67.70;;;;;;4711920;30;20064;-78
2021/06/18 03:46:09;;;;;;;1.05;0.95;;;21.50;67.70;;;;;;4660313;30;20050;-78
2021/06/18 03:48:51;;;;;;;1.30;1.17;;;21.70;67.80;;;;;;4677638;30;20066;-78
2021/06/18 03:56:26;;;;;;;1.20;1.02;;;21.70;67.70;;;;;;4609999;30;20195;-79
2021/06/18 04:04:13;;;;;;;2.03;1.45;;;21.80;67.70;;;;;;4608707;31;20143;-78
2021/06/18 04:10:30;;;;;;;3.90;2.87;;;21.90;67.50;;;;;;4593879;31;20164;-79
2021/06/18 04:12:57;;;;;;;4.95;3.60;;;21.80;67.50;;;;;;4597698;31;20295;-79
2021/06/18 04:15:24;;;;;;;6.70;3.80;;;21.70;68.00;;;;;;4597683;31;20068;-80
2021/06/18 04:17:51;;;;;;;4.10;2.88;;;21.70;68.40;;;;;;4598198;31;20040;-80
2021/06/18 04:20:20;;;;;;;4.05;2.88;;;21.60;68.70;;;;;;4613987;31;20118;-80
2021/06/18 04:22:48;;;;;;;3.17;2.20;;;21.50;68.90;;;;;;4612946;31;20072;-79
2021/06/18 04:25:14;;;;;;;2.95;2.17;;;21.50;69.10;;;;;;4612005;31;20059;-79
2021/06/18 04:27:39;;;;;;;1.70;1.60;;;21.60;69.10;;;;;;4612379;31;20044;-79
2021/06/18 04:30:11;;;;;;;2.20;1.80;;;21.60;69.00;;;;;;4612519;31;20092;-81
2021/06/18 04:32:37;;;;;;;1.63;1.50;;;21.60;69.00;;;;;;4701667;30;20098;-79
2021/06/18 04:35:05;;;;;;;2.33;1.80;;;21.60;69.00;;;;;;4781061;29;20042;-80
2021/06/18 04:37:32;;;;;;;2.28;1.75;;;21.60;69.10;;;;;;4839997;29;20577;-80
2021/06/18 04:39:57;;;;;;;2.60;1.90;;;21.70;69.30;;;;;;4858586;29;20139;-79
2021/06/18 04:42:23;;;;;;;2.78;2.05;;;21.60;69.30;;;;;;4877264;29;20136;-79
2021/06/18 04:44:49;;;;;;;2.80;1.92;;;21.70;69.50;;;;;;4876751;29;20124;-80
2021/06/18 04:47:14;;;;;;;2.08;1.75;;;21.60;69.80;;;;;;4960930;28;20047;-77
2021/06/18 04:49:40;;;;;;;2.40;2.00;;;21.50;70.10;;;;;;4956077;28;20043;-79
2021/06/18 04:52:06;;;;;;;1.88;1.60;;;21.40;70.30;;;;;;4956511;28;20527;-81
2021/06/18 04:54:32;;;;;;;3.28;1.63;;;21.30;70.60;;;;;;4956466;28;20485;-84
2021/06/18 04:56:58;;;;;;;2.33;1.70;;;21.40;70.90;;;;;;4942103;28;20058;-77
2021/06/18 04:59:24;;;;;;;4.60;2.50;;;21.20;71.10;;;;;;4983124;28;20078;-81
2021/06/18 05:01:50;;;;;;;3.50;2.30;;;21.10;71.50;;;;;;4963519;28;20042;-79
2021/06/18 05:04:16;;;;;;;2.45;1.92;;;20.90;72.00;;;;;;4962303;28;20034;-80
2021/06/18 05:06:42;;;;;;;3.10;1.80;;;20.80;72.50;;;;;;4945751;28;20504;-83
2021/06/18 05:09:08;;;;;;;3.50;2.30;;;20.80;72.80;;;;;;4962903;28;20058;-84
2021/06/18 05:11:33;;;;;;;2.53;1.80;;;20.70;73.10;;;;;;4934177;28;20489;-85
2021/06/18 05:13:59;;;;;;;2.28;1.70;;;20.70;73.30;;;;;;4982957;28;20042;-83
2021/06/18 05:16:26;;;;;;;2.22;1.50;;;20.70;73.40;;;;;;4982948;28;20039;-84
2021/06/18 05:18:51;;;;;;;1.52;1.40;;;20.70;73.40;;;;;;4981556;28;20038;-83
2021/06/18 05:21:17;;;;;;;1.33;1.13;;;20.80;73.40;;;;;;4962691;28;20065;-84
2021/06/18 05:23:43;;;;;;;1.85;1.60;;;20.90;73.30;;;;;;4947762;28;20477;-84
2021/06/18 05:26:09;;;;;;;1.70;1.30;;;20.90;73.20;;;;;;4958437;28;20042;-84
2021/06/18 05:28:35;;;;;;;1.77;1.40;;;20.90;73.20;;;;;;4926365;28;20110;-84
2021/06/18 05:31:00;;;;;;;2.65;1.80;;;21.00;73.20;;;;;;4975557;28;20047;-85
2021/06/18 05:33:28;;;;;;;1.15;1.05;;;21.00;73.30;;;;;;4926076;28;20043;-86
2021/06/18 05:35:53;;;;;;;1.13;1.02;;;21.00;73.50;;;;;;4942600;28;20062;-84
2021/06/18 05:38:19;;;;;;;1.83;1.30;;;21.00;73.50;;;;;;4946490;28;20497;-84
2021/06/18 05:40:45;;;;;;;1.48;1.33;;;21.00;73.50;;;;;;4943160;28;20043;-84
2021/06/18 05:43:11;;;;;;;2.20;1.70;;;21.10;73.50;;;;;;4956778;28;20446;-85
2021/06/18 05:45:38;;;;;;;1.50;1.40;;;21.20;73.50;;;;;;4958769;28;20085;-84
2021/06/18 05:48:05;;;;;;;2.17;1.40;;;21.20;73.50;;;;;;4972378;28;20050;-84
2021/06/18 05:50:31;;;;;;;1.65;1.30;;;21.30;73.50;;;;;;4941562;28;20125;-85
2021/06/18 05:52:57;;;;;;;1.80;1.40;;;21.30;73.60;;;;;;4977820;28;20043;-85
2021/06/18 05:55:23;;;;;;;2.17;1.70;;;21.20;73.70;;;;;;4958272;28;20462;-85
2021/06/18 05:57:50;;;;;;;3.45;2.00;;;21.20;73.70;;;;;;4942442;28;20042;-84
2021/06/18 06:00:17;;;;;;;2.15;1.55;;;21.30;73.80;;;;;;4943839;28;20142;-84
2021/06/18 06:02:42;;;;;;;1.38;1.20;;;21.30;73.90;;;;;;4924100;28;20126;-83
2021/06/18 06:05:12;;;;;;;1.60;1.40;;;21.40;74.00;;;;;;4955921;28;20070;-85
2021/06/18 06:07:47;;;;;;;1.50;1.33;;;21.30;74.70;;;;;;4920321;28;20044;-82
2021/06/18 06:10:14;;;;;;;1.50;1.40;;;21.30;74.20;;;;;;4952144;28;20090;-82
2021/06/18 06:12:40;;;;;;;2.17;1.55;;;21.40;74.20;;;;;;4958818;28;20039;-80
2021/06/18 06:15:06;;;;;;;3.72;2.30;;;21.50;74.30;;;;;;4955566;28;20035;-80
2021/06/18 06:17:32;;;;;;;2.22;1.77;;;21.40;74.20;;;;;;4954805;28;20506;-79
2021/06/18 06:19:58;;;;;;;2.20;1.80;;;21.40;74.30;;;;;;4955528;28;20058;-85
2021/06/18 06:22:24;;;;;;;2.00;1.80;;;21.40;74.30;;;;;;4972668;28;20059;-83
2021/06/18 06:24:49;;;;;;;2.20;1.70;;;21.50;74.40;;;;;;4962558;28;20038;-81
2021/06/18 06:27:15;;;;;;;1.65;1.55;;;21.60;74.40;;;;;;4958231;28;20481;-81
2021/06/18 06:29:43;;;;;;;2.00;1.50;;;21.70;74.30;;;;;;4956526;28;20043;-83
2021/06/18 06:32:10;;;;;;;2.42;1.77;;;21.90;74.00;;;;;;4957321;28;20524;-78
2021/06/18 06:34:36;;;;;;;1.88;1.60;;;22.00;73.70;;;;;;4956102;28;20043;-79
2021/06/18 06:37:02;;;;;;;1.95;1.58;;;22.00;73.40;;;;;;4975149;28;20378;-79
2021/06/18 06:39:27;;;;;;;1.67;1.52;;;22.10;73.50;;;;;;4944278;28;20042;-80
2021/06/18 06:41:54;;;;;;;2.10;1.77;;;22.30;73.40;;;;;;4959813;28;20494;-81
2021/06/18 06:44:19;;;;;;;2.58;1.67;;;22.50;73.20;;;;;;4958764;28;20086;-80
2021/06/18 06:46:45;;;;;;;1.85;1.70;;;22.60;73.00;;;;;;4928726;28;20393;-82
2021/06/18 06:49:11;;;;;;;1.52;1.42;;;22.80;72.80;;;;;;4958987;28;20590;-78
2021/06/18 06:51:36;;;;;;;2.03;1.75;;;22.90;72.50;;;;;;4959094;28;20043;-81
2021/06/18 06:54:03;;;;;;;2.58;1.48;;;23.00;72.40;;;;;;4941908;28;20041;-82
2021/06/18 06:56:29;;;;;;;1.98;1.73;;;23.00;72.40;;;;;;4975490;28;20473;-81
2021/06/18 06:58:55;;;;;;;1.15;1.13;;;22.90;72.60;;;;;;4956927;28;20486;-82
2021/06/18 07:01:22;;;;;;;2.45;1.83;;;22.90;72.90;;;;;;4975553;28;20513;-82
2021/06/18 07:03:47;;;;;;;2.22;1.83;;;22.80;73.10;;;;;;4957787;28;20038;-82
2021/06/18 07:06:13;;;;;;;1.50;1.40;;;22.90;73.40;;;;;;4957459;28;20518;-82
2021/06/18 07:08:39;;;;;;;2.60;1.92;;;22.70;73.50;;;;;;4958230;28;20046;-84
2021/06/18 07:11:05;;;;;;;1.55;1.33;;;22.80;73.70;;;;;;4941918;28;20054;-84
2021/06/18 07:13:30;;;;;;;2.28;1.80;;;22.90;73.50;;;;;;4959017;28;20078;-83
2021/06/18 07:15:56;;;;;;;1.75;1.50;;;23.00;73.20;;;;;;4949958;28;20050;-84
2021/06/18 07:18:23;;;;;;;2.45;1.75;;;23.30;73.00;;;;;;4942826;28;20110;-84
2021/06/18 07:20:49;;;;;;;2.15;1.73;;;23.40;72.60;;;;;;4975501;28;20124;-83
2021/06/18 07:23:15;;;;;;;1.80;1.58;;;23.50;72.50;;;;;;4975147;28;20489;-83
2021/06/18 07:25:42;;;;;;;1.55;1.45;;;23.40;72.40;;;;;;4975572;28;20046;-85
2021/06/18 07:28:08;;;;;;;1.95;1.70;;;23.60;72.60;;;;;;4942045;28;20367;-83
2021/06/18 07:30:35;;;;;;;2.33;1.80;;;23.50;72.70;;;;;;4957811;28;20038;-83
2021/06/18 07:33:01;;;;;;;1.98;1.77;;;23.50;72.70;;;;;;4925997;28;20042;-83
2021/06/18 07:35:27;;;;;;;1.90;1.67;;;23.50;72.60;;;;;;4957664;28;20042;-83
2021/06/18 07:37:53;;;;;;;1.83;1.52;;;23.50;72.70;;;;;;4941655;28;20460;-84
2021/06/18 07:40:19;;;;;;;2.65;2.00;;;23.50;72.90;;;;;;4941589;28;20064;-83
2021/06/18 07:42:45;;;;;;;1.83;1.67;;;23.40;73.00;;;;;;4957866;28;20074;-84
2021/06/18 07:45:13;;;;;;;1.60;1.50;;;23.40;73.20;;;;;;4941340;28;20105;-84
2021/06/18 07:47:39;;;;;;;1.50;1.40;;;23.40;73.20;;;;;;4925130;28;20027;-84
2021/06/18 07:50:08;;;;;;;2.67;1.75;;;23.30;73.30;;;;;;4923315;28;20024;-83
2021/06/18 07:52:34;;;;;;;2.70;1.77;;;23.30;73.50;;;;;;4941881;28;20031;-83
2021/06/18 07:55:01;;;;;;;2.25;1.67;;;23.30;73.70;;;;;;4941090;28;20049;-83
2021/06/18 07:57:27;;;;;;;2.10;1.67;;;23.30;73.90;;;;;;4957980;28;20371;-84
2021/06/18 07:59:53;;;;;;;1.90;1.58;;;23.20;73.80;;;;;;4977438;28;20042;-84
2021/06/18 08:02:19;;;;;;;1.75;1.60;;;23.20;73.90;;;;;;4959062;28;20456;-84
2021/06/18 08:04:45;;;;;;;1.92;1.60;;;23.20;73.90;;;;;;4948195;28;20065;-83
2021/06/18 08:07:11;;;;;;;1.60;1.50;;;23.20;74.00;;;;;;4963119;28;20043;-84
2021/06/18 08:09:37;;;;;;;2.15;1.60;;;23.20;74.00;;;;;;4965799;28;20059;-84
2021/06/18 08:12:03;;;;;;;2.60;2.08;;;23.10;74.00;;;;;;4966949;28;20058;-83
2021/06/18 08:14:29;;;;;;;1.67;1.58;;;23.10;73.90;;;;;;4927098;29;20134;-84
2021/06/18 08:16:55;;;;;;;1.63;1.48;;;23.20;73.90;;;;;;4921902;29;20546;-85
2021/06/18 08:19:24;;;;;;;1.80;1.50;;;23.10;73.90;;;;;;4902827;29;20598;-80
2021/06/18 08:21:49;;;;;;;2.03;1.55;;;23.00;73.90;;;;;;4884742;29;20656;-82
2021/06/18 08:24:18;;;;;;;1.77;1.60;;;23.10;74.00;;;;;;4901918;29;20048;-83
2021/06/18 08:26:43;;;;;;;3.15;2.47;;;23.10;74.10;;;;;;4903983;29;20044;-83
2021/06/18 08:29:15;;;;;;;3.10;2.28;;;23.10;74.10;;;;;;4885230;29;20115;-85
2021/06/18 08:32:39;;;;;;;2.90;1.90;;;23.00;74.20;;;;;;4884659;29;20044;-89
2021/06/18 08:35:14;;;;;;;2.20;1.85;;;23.00;74.20;;;;;;4876906;29;20143;-87
2021/06/18 08:38:22;;;;;;;2.58;2.00;;;23.00;74.20;;;;;;4846115;29;20502;-88
2021/06/18 08:40:51;;;;;;;3.83;1.98;;;23.00;74.10;;;;;;4851847;29;20045;-88
2021/06/18 08:43:17;;;;;;;2.35;2.10;;;23.00;74.00;;;;;;4861529;29;20049;-83
2021/06/18 08:45:42;;;;;;;2.08;1.80;;;23.00;73.90;;;;;;4872765;29;20052;-84
2021/06/18 08:48:09;;;;;;;4.22;2.67;;;23.00;73.90;;;;;;4895995;29;20056;-82
2021/06/18 08:50:35;;;;;;;2.67;2.05;;;23.20;73.80;;;;;;4880383;29;20092;-82
2021/06/18 08:53:02;;;;;;;2.45;1.63;;;23.20;73.60;;;;;;4896197;29;20055;-85
2021/06/18 08:55:34;;;;;;;3.72;2.10;;;23.20;73.40;;;;;;4880728;29;20539;-86
2021/06/18 08:58:14;;;;;;;2.85;2.17;;;23.40;73.20;;;;;;4862594;29;20071;-85
2021/06/18 09:00:41;;;;;;;2.47;1.90;;;23.50;73.10;;;;;;4874806;29;20131;-84
2021/06/18 09:03:42;;;;;;;2.50;2.08;;;23.60;73.40;;;;;;4876462;29;20093;-81
2021/06/18 09:06:46;;;;;;;1.88;1.73;;;23.70;72.50;;;;;;4876598;29;20429;-91
2021/06/18 09:09:59;;;;;;;1.98;1.77;;;23.90;72.40;;;;;;4878537;29;20064;-90
2021/06/18 09:15:33;;;;;;;3.17;2.30;;;24.30;71.70;;;;;;4871816;29;20052;-85
2021/06/18 09:19:05;;;;;;;2.25;2.00;;;24.60;71.00;;;;;;4881151;29;20045;-84
2021/06/18 09:26:10;;;;;;;2.20;1.92;;;25.30;69.60;;;;;;4803532;29;20517;-84
2021/06/18 09:35:35;;;;;;;1.95;1.77;;;26.20;68.60;;;;;;4781541;30;20047;-89
2021/06/18 09:49:04;;;;;;;2.53;1.70;;;26.90;67.70;;;;;;4796916;29;20062;-83
2021/06/18 09:51:29;;;;;;;1.88;1.65;;;27.10;67.70;;;;;;4786783;29;20031;-82
2021/06/18 09:53:55;;;;;;;2.95;2.10;;;27.20;67.50;;;;;;4786295;29;20165;-83
2021/06/18 09:56:21;;;;;;;2.28;1.88;;;27.40;67.60;;;;;;4786053;29;20043;-83
2021/06/18 09:58:48;;;;;;;3.45;1.90;;;27.40;67.30;;;;;;4854260;29;20048;-81
2021/06/18 10:01:24;;;;;;;1.38;1.27;;;27.50;67.30;;;;;;4845097;29;20056;-81
2021/06/18 10:04:06;;;;;;;1.50;1.40;;;27.60;67.30;;;;;;4882723;29;20036;-83
2021/06/18 10:06:37;;;;;;;1.90;1.55;;;27.70;67.10;;;;;;4944968;28;20034;-82
2021/06/18 10:09:05;;;;;;;2.35;1.90;;;27.80;67.00;;;;;;4971219;28;20038;-82
2021/06/18 10:11:32;;;;;;;2.35;2.05;;;28.00;67.00;;;;;;4972658;28;20121;-82
2021/06/18 10:13:58;;;;;;;2.35;1.83;;;28.10;66.80;;;;;;4955871;28;20066;-82
2021/06/18 10:16:26;;;;;;;4.03;2.08;;;28.20;66.70;;;;;;4971784;28;20038;-86
2021/06/18 10:18:54;;;;;;;2.05;1.80;;;28.30;66.50;;;;;;4923230;28;20024;-81
2021/06/18 10:25:16;;;;;;;2.35;1.98;;;28.50;66.30;;;;;;4876334;29;20079;-86
2021/06/18 10:27:49;;;;;;;1.95;1.73;;;28.60;66.40;;;;;;4837609;29;20053;-86
2021/06/18 10:34:16;;;;;;;2.90;2.20;;;28.70;66.00;;;;;;4771881;29;20078;-85
2021/06/18 10:36:44;;;;;;;1.88;1.67;;;29.00;65.90;;;;;;4806888;29;20039;-86
2021/06/18 10:39:20;;;;;;;2.40;1.88;;;28.90;65.60;;;;;;4808252;29;20030;-87
2021/06/18 10:42:14;;;;;;;1.83;1.73;;;29.10;65.60;;;;;;4806597;29;20042;-87
2021/06/18 10:44:55;;;;;;;1.80;1.70;;;29.30;65.60;;;;;;4804771;29;20143;-87
2021/06/18 10:47:43;;;;;;;2.40;1.90;;;29.30;65.30;;;;;;4804841;29;20042;-87
2021/06/18 10:50:12;;;;;;;2.13;1.77;;;29.40;65.20;;;;;;4790381;29;20227;-87
2021/06/18 10:52:43;;;;;;;1.83;1.70;;;29.50;65.10;;;;;;4789510;29;20046;-87
2021/06/18 10:55:09;;;;;;;;;;;29.50;64.80;;;;;;4789833;29;20042;-88
2021/06/18 10:57:49;;;;;;;2.80;2.30;;;29.40;65.00;;;;;;4819451;29;20376;-87
2021/06/18 11:00:21;;;;;;;1.98;1.77;;;29.40;65.30;;;;;;4830869;29;20068;-87
2021/06/18 11:02:50;;;;;;;2.60;2.30;;;29.50;65.40;;;;;;4863206;29;20068;-89
2021/06/18 11:05:56;;;;;;;2.33;2.13;;;29.50;65.10;;;;;;4864904;29;20048;-87
2021/06/18 11:08:26;;;;;;;3.33;2.72;;;29.60;65.00;;;;;;4828519;29;20038;-81
2021/06/18 11:10:57;;;;;;;2.40;2.20;;;29.70;64.60;;;;;;4844268;29;20120;-80
2021/06/18 11:13:29;;;;;;;3.10;2.35;;;29.70;64.70;;;;;;4850373;29;20065;-83
2021/06/18 11:15:55;;;;;;;2.25;1.95;;;29.70;64.60;;;;;;4814398;29;20132;-84
2021/06/18 11:18:36;;;;;;;2.20;1.92;;;29.80;64.40;;;;;;4837622;29;20037;-80
2021/06/18 11:21:07;;;;;;;2.20;2.00;;;29.90;64.30;;;;;;4852825;29;20078;-83
2021/06/18 11:27:05;;;;;;;2.57;2.20;;;30.10;64.10;;;;;;4892456;29;20403;-85
2021/06/18 11:29:30;;;;;;;2.97;2.28;;;30.20;63.90;;;;;;4906973;29;20059;-83
2021/06/18 11:31:56;;;;;;;3.30;2.13;;;30.20;63.80;;;;;;4903803;29;20049;-84
2021/06/18 11:34:26;;;;;;;2.78;2.05;;;30.30;63.90;;;;;;4909759;29;20872;-83
2021/06/18 11:36:59;;;;;;;2.70;2.10;;;30.30;63.80;;;;;;4926136;29;20126;-84
2021/06/18 11:39:27;;;;;;;3.10;2.17;;;30.30;63.80;;;;;;4928914;29;20047;-82
2021/06/18 11:41:59;;;;;;;2.80;2.00;;;30.40;63.60;;;;;;4896322;29;20098;-84
2021/06/18 11:44:30;;;;;;;3.22;2.60;;;30.40;63.60;;;;;;4876584;29;20464;-84
2021/06/18 11:47:00;;;;;;;2.40;2.20;;;30.30;63.80;;;;;;4816976;29;20046;-85
2021/06/18 11:49:31;;;;;;;2.07;1.87;;;30.30;64.00;;;;;;4857524;29;20050;-85
2021/06/18 11:52:01;;;;;;;3.10;2.55;;;30.30;63.90;;;;;;4808236;29;20179;-85
2021/06/18 11:54:38;;;;;;;2.63;2.25;;;30.30;63.80;;;;;;4814622;29;20046;-87
2021/06/18 11:57:21;;;;;;;2.17;1.90;;;30.40;63.70;;;;;;4831308;29;20130;-82
2021/06/18 12:00:33;;;;;;;2.28;1.98;;;30.40;63.60;;;;;;4827193;29;20062;-83
2021/06/18 12:03:08;;;;;;;1.80;1.70;;;30.40;63.70;;;;;;4783880;29;20059;-82
2021/06/18 12:05:35;;;;;;;1.83;1.55;;;30.50;63.50;;;;;;4786126;30;20502;-83
2021/06/18 12:08:23;;;;;;;2.72;2.10;;;30.50;63.50;;;;;;4776194;30;20059;-81
2021/06/18 12:10:49;;;;;;;1.92;1.77;;;30.50;63.30;;;;;;4760043;29;20065;-81
2021/06/18 12:13:18;;;;;;;1.85;1.65;;;30.40;63.20;;;;;;4786957;29;20051;-82
2021/06/18 12:15:46;;;;;;;1.80;1.70;;;30.60;63.10;;;;;;4773009;30;20056;-82
2021/06/18 12:18:51;;;;;;;1.77;1.60;;;30.60;62.80;;;;;;4801296;29;20043;-83
2021/06/18 12:22:16;;;;;;;2.17;1.63;;;30.50;63.00;;;;;;4718137;30;20057;-86
2021/06/18 12:25:03;;;;;;;1.85;1.65;;;30.50;63.00;;;;;;4735218;30;20114;-87
2021/06/18 12:30:43;;;;;;;1.98;1.75;;;30.60;62.70;;;;;;4714109;30;20079;-86
2021/06/18 12:33:09;;;;;;;1.80;1.60;;;30.60;62.80;;;;;;4715826;30;20060;-82
2021/06/18 12:35:40;;;;;;;1.92;1.77;;;30.50;62.70;;;;;;4716007;30;20041;-82
2021/06/18 12:38:10;;;;;;;1.70;1.60;;;30.50;62.90;;;;;;4713627;30;20232;-82
2021/06/18 12:40:36;;;;;;;;;;;30.50;62.90;;;;;;4712372;30;20042;-85
2021/06/18 12:43:12;;;;;;;1.95;1.50;;;30.40;62.90;;;;;;4698411;30;20371;-84
2021/06/18 12:45:43;;;;;;;1.60;1.50;;;30.50;63.40;;;;;;4746453;30;20059;-84
2021/06/18 12:48:13;;;;;;;1.92;1.40;;;30.60;62.60;;;;;;4789464;29;20513;-80
2021/06/18 12:50:50;;;;;;;1.40;1.30;;;30.70;62.40;;;;;;4785344;30;20050;-81
2021/06/18 12:53:28;;;;;;;2.53;1.65;;;30.70;62.20;;;;;;4785664;29;20043;-80
2021/06/18 12:55:54;;;;;;;1.50;1.40;;;30.80;62.00;;;;;;4787041;29;20073;-81
2021/06/18 12:58:22;;;;;;;1.58;1.45;;;30.90;62.00;;;;;;4816677;29;20034;-81
2021/06/18 13:00:57;;;;;;;1.55;1.40;;;30.90;61.80;;;;;;4861662;28;20064;-79
2021/06/18 13:03:48;;;;;;;1.40;1.20;;;31.00;61.80;;;;;;4927507;28;20040;-82
2021/06/18 13:06:14;;;;;;;;;;;31.00;61.70;;;;;;4961146;28;20035;-79
2021/06/18 13:08:52;;;;;;;1.42;1.20;;;31.00;61.60;;;;;;4961029;28;19907;-80
2021/06/18 13:11:31;;;;;;;1.60;1.40;;;31.00;61.50;;;;;;4959549;28;20048;-79
2021/06/18 13:14:14;;;;;;;1.40;1.30;;;31.00;61.20;;;;;;4959730;28;20042;-80
2021/06/18 13:16:42;;;;;;;1.30;1.20;;;31.00;61.00;;;;;;4943066;28;20457;-80
2021/06/18 13:19:08;;;;;;;1.60;1.40;;;31.00;61.10;;;;;;4929357;28;20042;-79
2021/06/18 13:21:51;;;;;;;1.42;1.33;;;31.10;61.20;;;;;;4965331;28;20035;-80
2021/06/18 13:24:23;;;;;;;1.35;1.25;;;31.00;61.00;;;;;;4969369;28;20185;-80
2021/06/18 13:26:50;;;;;;;1.63;1.35;;;31.00;61.00;;;;;;4969511;28;20031;-81
2021/06/18 13:29:19;;;;;;;1.60;1.50;;;31.00;61.00;;;;;;4967724;28;20066;-79
2021/06/18 13:31:50;;;;;;;1.55;1.30;;;31.00;60.70;;;;;;4951080;28;20153;-80
2021/06/18 13:34:17;;;;;;;2.45;1.70;;;31.10;60.70;;;;;;4981648;28;20500;-81
2021/06/18 13:36:45;;;;;;;1.63;1.40;;;31.10;60.60;;;;;;4958622;28;20031;-82
2021/06/18 13:39:39;;;;;;;1.40;1.30;;;31.10;60.40;;;;;;4975043;28;20038;-79
2021/06/18 13:42:05;;;;;;;1.40;1.30;;;31.10;60.30;;;;;;4974636;28;20050;-79
2021/06/18 13:44:31;;;;;;;1.40;1.30;;;31.20;60.40;;;;;;4941404;28;20053;-80
2021/06/18 13:47:22;;;;;;;1.45;1.35;;;31.20;60.30;;;;;;4974814;28;20047;-84
2021/06/18 13:49:48;;;;;;;1.77;1.50;;;31.20;60.10;;;;;;4957303;28;20050;-80
2021/06/18 13:52:13;;;;;;;1.77;1.58;;;31.20;60.10;;;;;;4958450;28;20397;-78
2021/06/18 13:54:39;;;;;;;2.15;1.50;;;31.00;60.30;;;;;;4956685;28;20047;-75
2021/06/18 13:57:05;;;;;;;1.60;1.30;;;31.00;60.40;;;;;;4973948;28;20078;-79
2021/06/18 13:59:31;;;;;;;1.27;1.17;;;31.10;60.30;;;;;;4959125;28;20401;-77
2021/06/18 14:01:56;;;;;;;1.33;1.23;;;31.20;60.00;;;;;;4976693;28;20043;-76
2021/06/18 14:04:22;;;;;;;2.40;1.42;;;31.20;59.80;;;;;;4956206;28;20414;-85
2021/06/18 14:06:48;;;;;;;1.50;1.40;;;31.30;59.70;;;;;;4956213;28;20068;-77
2021/06/18 14:09:13;;;;;;;1.80;1.50;;;31.30;59.50;;;;;;4939528;28;20489;-81
2021/06/18 15:21:21;;;;;;;0.50;0.50;;;29.40;57.20;;;;;;5157532;27;20672;-79
2021/06/18 15:23:47;;;;;;;0.60;0.60;;;29.30;58.60;;;;;;5133944;28;20035;-79
2021/06/18 15:29:33;;;;;;;0.63;0.63;;;29.20;60.00;;;;;;5036165;28;20926;-84
2021/06/18 15:32:00;;;;;;;1.33;0.80;;;29.10;60.50;;;;;;5047038;28;20056;-86
2021/06/18 15:34:27;;;;;;;1.30;1.20;;;29.20;60.80;;;;;;5029978;28;20042;-87
2021/06/18 15:36:55;;;;;;;2.10;1.40;;;29.10;60.50;;;;;;5009043;28;20046;-84
2021/06/18 15:39:21;;;;;;;1.98;1.50;;;29.30;60.50;;;;;;4993950;28;20069;-82
2021/06/18 15:41:47;;;;;;;1.70;1.27;;;29.30;60.30;;;;;;4996256;28;20076;-85
2021/06/18 15:44:14;;;;;;;1.27;1.17;;;29.40;60.00;;;;;;5012491;28;20088;-85
2021/06/18 15:46:43;;;;;;;1.38;1.27;;;29.70;59.60;;;;;;5010245;28;20092;-83
2021/06/18 15:49:09;;;;;;;1.52;1.25;;;30.00;59.10;;;;;;4972419;28;20046;-84
2021/06/18 15:51:35;;;;;;;1.33;1.23;;;30.10;58.70;;;;;;5008173;28;20045;-84
2021/06/18 15:54:01;;;;;;;2.15;1.25;;;30.10;58.70;;;;;;4980572;28;20038;-84
2021/06/18 15:56:27;;;;;;;1.73;1.30;;;29.90;58.80;;;;;;5009944;28;20041;-82
2021/06/18 15:58:53;;;;;;;2.72;1.40;;;29.80;59.10;;;;;;4971361;28;20133;-84
2021/06/18 16:01:19;;;;;;;2.55;1.38;;;29.70;59.40;;;;;;4996188;28;20129;-82
2021/06/18 16:03:47;;;;;;;2.20;1.58;;;29.40;59.80;;;;;;5013823;28;20042;-84
2021/06/18 16:08:59;;;;;;;1.38;1.17;;;28.00;62.30;;;;;;4981209;28;20038;-84
2021/06/18 16:11:25;;;;;;;1.13;1.02;;;27.60;63.70;;;;;;5008046;28;20034;-84
2021/06/18 16:13:51;;;;;;;1.15;1.02;;;27.30;65.10;;;;;;4991006;28;20575;-83
2021/06/18 16:16:18;;;;;;;1.38;1.10;;;27.20;64.80;;;;;;4990292;28;20129;-82
2021/06/18 16:18:44;;;;;;;1.20;1.13;;;27.00;65.20;;;;;;5009748;28;20057;-83
2021/06/18 16:21:10;;;;;;;1.98;1.30;;;27.00;65.80;;;;;;5014505;28;20046;-76
2021/06/18 16:23:59;;;;;;;1.30;1.20;;;26.90;66.10;;;;;;5008675;28;20492;-83
2021/06/18 16:26:26;;;;;;;1.35;1.00;;;27.00;66.00;;;;;;4995449;28;20047;-84
2021/06/18 16:28:51;;;;;;;1.30;1.20;;;27.10;65.80;;;;;;5016601;28;20046;-83
2021/06/18 16:31:17;;;;;;;1.52;1.20;;;27.30;65.60;;;;;;5020267;28;20056;-82
2021/06/18 16:33:43;;;;;;;1.45;1.30;;;27.40;65.30;;;;;;5028334;28;20049;-83
2021/06/18 16:36:14;;;;;;;1.50;1.20;;;27.40;65.10;;;;;;5044967;28;20080;-83
2021/06/18 16:38:39;;;;;;;1.13;1.02;;;27.60;65.30;;;;;;5008358;28;20144;-84
2021/06/18 16:41:05;;;;;;;1.20;1.10;;;27.70;65.20;;;;;;5079807;28;20184;-84
2021/06/18 16:43:31;;;;;;;1.55;1.10;;;27.80;65.20;;;;;;5085733;28;20046;-84
2021/06/18 16:45:56;;;;;;;2.80;1.40;;;27.80;65.00;;;;;;5078486;28;20044;-84
2021/06/18 16:48:22;;;;;;;1.52;1.27;;;27.80;65.20;;;;;;5098357;28;20142;-83
2021/06/18 16:50:48;;;;;;;1.27;1.15;;;27.90;65.40;;;;;;5081792;28;20035;-83
2021/06/18 16:53:14;;;;;;;1.38;1.17;;;27.90;65.50;;;;;;5066924;28;20043;-83
2021/06/18 16:55:42;;;;;;;1.67;1.33;;;27.90;65.50;;;;;;5097446;28;20439;-81
2021/06/18 16:58:08;;;;;;;1.75;1.50;;;27.90;65.50;;;;;;5097866;28;20082;-82
2021/06/18 17:00:34;;;;;;;1.48;1.30;;;27.90;65.80;;;;;;5085027;28;20094;-80
2021/06/18 17:03:00;;;;;;;2.00;1.30;;;27.80;65.80;;;;;;5097436;28;20118;-80
2021/06/18 17:05:26;;;;;;;1.42;1.23;;;27.80;65.90;;;;;;5079437;28;20094;-80
2021/06/18 17:07:55;;;;;;;1.52;1.20;;;27.80;65.90;;;;;;5096470;28;20044;-80
2021/06/18 17:10:27;;;;;;;1.70;1.30;;;27.90;66.00;;;;;;5079690;28;20062;-80
2021/06/18 17:21:18;;;;;;;1.58;1.05;;;27.70;66.30;;;;;;4916749;29;20071;-88
2021/06/18 17:23:27;;;;;;;1.20;1.10;;;27.70;66.30;;;;;;4886118;29;20041;-86
2021/06/18 17:25:54;;;;;;;1.90;1.20;;;27.80;66.30;;;;;;4897736;29;20048;-87
2021/06/18 17:28:20;;;;;;;1.50;1.20;;;27.80;66.30;;;;;;4881685;29;20112;-86
2021/06/18 17:30:46;;;;;;;1.70;1.30;;;27.80;66.30;;;;;;4881788;29;20048;-85
2021/06/18 17:33:12;;;;;;;1.27;1.08;;;27.80;66.30;;;;;;4881281;29;20045;-86
2021/06/18 17:35:38;;;;;;;1.23;1.13;;;27.80;66.40;;;;;;4897053;29;20048;-85
2021/06/18 17:38:04;;;;;;;1.30;1.20;;;27.70;66.50;;;;;;4881395;29;20547;-86
2021/06/18 17:40:31;;;;;;;1.27;1.17;;;27.70;66.50;;;;;;4897268;29;20045;-86
2021/06/18 17:42:57;;;;;;;1.58;1.17;;;27.70;66.50;;;;;;4895873;29;20040;-86
2021/06/18 17:45:23;;;;;;;1.25;1.10;;;27.60;67.30;;;;;;4897832;29;20575;-86
2021/06/18 17:47:49;;;;;;;1.38;1.20;;;27.50;67.00;;;;;;4889909;29;20036;-86
2021/06/18 17:50:15;;;;;;;1.58;1.10;;;27.30;67.40;;;;;;4915373;29;20107;-86
2021/06/18 17:52:40;;;;;;;1.33;1.20;;;27.20;67.80;;;;;;4941517;28;20073;-85
2021/06/18 17:55:07;;;;;;;3.25;1.40;;;27.00;68.00;;;;;;5011354;28;20481;-85
2021/06/18 17:57:33;;;;;;;1.80;1.30;;;26.90;68.30;;;;;;5081957;28;20040;-85
2021/06/18 17:59:59;;;;;;;1.90;1.10;;;26.80;68.60;;;;;;5078780;28;20101;-85
2021/06/18 18:02:24;;;;;;;1.35;1.20;;;26.80;68.80;;;;;;5079230;28;20055;-85
2021/06/18 18:04:50;;;;;;;1.17;1.00;;;26.70;69.00;;;;;;5096119;28;20392;-85
2021/06/18 18:07:16;;;;;;;0.80;0.80;;;26.50;69.10;;;;;;5095655;28;20039;-85
2021/06/18 18:09:43;;;;;;;0.98;0.90;;;26.50;69.30;;;;;;5095518;28;20101;-84
2021/06/18 18:12:09;;;;;;;1.02;0.90;;;26.40;69.40;;;;;;5113653;28;20146;-84